Time;durP1;ratioP1;P1;durP2;ratioP2;P2;SDS_P1;SDS_P2;PMS_P1;PMS_P2;Temp;Humidity;BMP_temperature;BMP_pressure;BME280_temperature;BME280_humidity;BME280_pressure;Samples;Min_cycle;Max_cycle;Signal;HPM_P1;HPM_P2
2023/08/06 00:01:07;;;;;;;3.92;2.20;;;;;;;22.41;54.15;96493.50;10282390;28;20636;-51
2023/08/06 00:06:06;;;;;;;3.42;2.13;;;;;;;22.63;53.91;96491.06;10284917;28;20105;-53
2023/08/06 00:11:05;;;;;;;3.33;2.38;;;;;;;22.54;54.18;96523.44;10283615;28;20036;-51
2023/08/06 00:16:14;;;;;;;2.63;1.98;;;;;;;22.56;54.01;96542.69;10283948;28;20140;-50
2023/08/06 00:21:13;;;;;;;4.53;2.20;;;;;;;22.50;54.76;96496.34;10281350;28;20073;-49
2023/08/06 00:26:11;;;;;;;2.92;1.83;;;;;;;22.43;56.87;96549.75;10282962;28;20034;-50
2023/08/06 00:31:10;;;;;;;3.97;2.00;;;;;;;22.04;58.67;96469.59;10299273;28;20038;-48
2023/08/06 00:36:09;;;;;;;5.90;2.22;;;;;;;21.70;60.54;96471.81;10280764;28;20033;-49
2023/08/06 00:41:08;;;;;;;4.75;2.40;;;;;;;21.47;63.13;96497.91;10284395;28;20109;-50
2023/08/06 00:46:07;;;;;;;4.55;2.40;;;;;;;21.28;67.32;96484.22;10281903;28;20137;-51
2023/08/06 00:51:07;;;;;;;8.65;2.88;;;;;;;21.05;68.51;96475.13;10284233;28;20040;-50
2023/08/06 00:56:08;;;;;;;6.05;2.70;;;;;;;20.97;68.60;96493.22;10281766;28;20141;-48
2023/08/06 01:01:07;;;;;;;3.78;2.72;;;;;;;20.92;70.12;96497.00;10282243;28;20594;-51
2023/08/06 01:06:06;;;;;;;6.45;3.03;;;;;;;21.00;72.36;96488.59;10295480;28;20512;-48
2023/08/06 01:11:20;;;;;;;5.20;2.67;;;;;;;20.65;74.54;96460.00;10296643;28;20050;-50
2023/08/06 01:16:20;;;;;;;4.32;2.45;;;;;;;20.58;73.11;96445.50;10294812;28;20135;-50
2023/08/06 01:21:19;;;;;;;3.35;2.65;;;;;;;20.36;74.64;96450.41;10295057;28;20128;-48
2023/08/06 01:26:37;;;;;;;7.28;2.90;;;;;;;20.25;75.65;96406.25;10295017;28;20029;-49
2023/08/06 01:31:43;;;;;;;4.65;3.00;;;;;;;20.49;75.35;96414.47;10295736;28;20563;-49
2023/08/06 01:36:42;;;;;;;4.72;2.85;;;;;;;20.43;75.79;96425.41;10294917;28;20129;-49
2023/08/06 01:41:41;;;;;;;4.40;2.60;;;;;;;20.34;76.64;96418.03;10293130;28;20061;-52
2023/08/06 01:46:40;;;;;;;3.75;2.75;;;;;;;20.39;77.79;96402.78;10296055;28;20035;-50
2023/08/06 01:51:39;;;;;;;4.45;2.58;;;;;;;20.40;77.74;96394.81;10292334;28;20033;-50
2023/08/06 01:56:38;;;;;;;4.38;3.15;;;;;;;20.41;78.53;96390.41;10294945;28;20117;-49
2023/08/06 02:01:37;;;;;;;7.25;2.72;;;;;;;20.46;79.20;96393.59;10293416;28;20116;-49
2023/08/06 02:06:36;;;;;;;5.95;3.40;;;;;;;20.44;80.17;96385.75;10295224;28;20030;-48
2023/08/06 02:11:35;;;;;;;5.18;2.88;;;;;;;20.50;80.87;96395.09;10292091;28;20026;-50
2023/08/06 02:16:34;;;;;;;4.50;3.00;;;;;;;20.49;81.05;96383.72;10288622;28;20109;-50
2023/08/06 02:21:33;;;;;;;5.70;3.10;;;;;;;20.49;80.94;96381.06;10287669;28;20122;-52
2023/08/06 02:26:32;;;;;;;4.95;3.10;;;;;;;20.55;81.14;96385.09;10288386;28;20026;-51
2023/08/06 02:31:31;;;;;;;6.45;3.05;;;;;;;20.53;81.14;96384.34;10286696;28;20069;-52
2023/08/06 02:36:30;;;;;;;6.70;3.67;;;;;;;20.53;81.06;96381.72;10287893;28;20144;-53
2023/08/06 02:41:29;;;;;;;5.60;3.28;;;;;;;20.38;83.12;96385.28;10286253;28;20018;-52
2023/08/06 02:46:27;;;;;;;5.07;3.55;;;;;;;20.40;83.55;96389.56;10288018;28;20025;-50
2023/08/06 02:51:26;;;;;;;5.82;3.67;;;;;;;20.41;83.37;96393.03;10287120;28;20116;-49
2023/08/06 02:56:26;;;;;;;7.10;3.70;;;;;;;20.23;84.54;96387.91;10285513;28;20487;-52
2023/08/06 03:01:26;;;;;;;5.80;3.45;;;;;;;20.11;85.93;96390.47;10287632;28;20129;-51
2023/08/06 03:06:25;;;;;;;8.30;4.00;;;;;;;19.93;87.15;96402.94;10286777;28;20069;-50
2023/08/06 03:11:24;;;;;;;7.20;4.47;;;;;;;19.89;86.83;96401.47;10285014;28;20117;-51
2023/08/06 03:16:23;;;;;;;6.25;3.88;;;;;;;19.97;86.62;96402.66;10287002;28;20133;-49
2023/08/06 03:21:22;;;;;;;5.60;3.97;;;;;;;19.82;86.74;96380.75;10282860;28;20021;-53
2023/08/06 03:26:21;;;;;;;6.53;3.92;;;;;;;19.85;86.44;96362.13;10284201;28;20121;-51
2023/08/06 03:31:20;;;;;;;7.13;3.58;;;;;;;20.16;85.88;96383.13;10286270;28;20165;-49
2023/08/06 03:36:19;;;;;;;6.57;3.42;;;;;;;20.14;86.22;96396.41;10289245;28;20101;-51
2023/08/06 03:41:18;;;;;;;6.95;3.90;;;;;;;20.36;85.44;96435.44;10291102;28;20125;-51
2023/08/06 03:46:16;;;;;;;5.90;3.47;;;;;;;20.39;84.37;96418.59;10288776;28;20037;-51
2023/08/06 03:51:15;;;;;;;5.53;3.60;;;;;;;20.03;85.67;96417.28;10287361;28;20486;-52
2023/08/06 03:56:14;;;;;;;7.10;3.55;;;;;;;19.73;88.16;96409.41;10286497;28;20061;-52
2023/08/06 04:01:13;;;;;;;6.00;3.78;;;;;;;19.69;87.78;96371.06;10287673;28;20036;-52
2023/08/06 04:06:12;;;;;;;7.90;4.00;;;;;;;19.76;88.00;96420.59;10284770;28;20030;-52
2023/08/06 04:11:13;;;;;;;20.65;6.82;;;;;;;19.84;89.49;96534.19;10283989;28;20029;-52
2023/08/06 04:16:13;;;;;;;19.00;6.38;;;;;;;19.73;94.07;96439.22;10287213;28;20069;-49
2023/08/06 04:21:12;;;;;;;14.40;6.30;;;;;;;19.22;95.14;96370.22;10289761;28;20065;-49
2023/08/06 04:26:11;;;;;;;6.55;3.58;;;;;;;18.73;96.10;96396.66;10290308;28;20022;-49
2023/08/06 04:31:10;;;;;;;10.70;4.40;;;;;;;18.57;96.59;96368.59;10288353;28;20128;-49
2023/08/06 04:36:09;;;;;;;7.20;3.72;;;;;;;18.49;97.26;96409.34;10286909;28;20132;-51
2023/08/06 04:41:07;;;;;;;4.85;2.88;;;;;;;18.48;97.63;96413.75;10286413;28;20125;-49
2023/08/06 04:46:06;;;;;;;4.47;2.83;;;;;;;18.50;97.84;96400.53;10287051;28;20165;-50
2023/08/06 04:51:05;;;;;;;5.47;3.00;;;;;;;18.54;97.61;96368.75;10286285;28;20105;-49
2023/08/06 04:56:04;;;;;;;5.88;2.70;;;;;;;18.59;97.63;96363.25;10286704;28;20032;-49
2023/08/06 05:01:03;;;;;;;6.05;3.08;;;;;;;18.66;97.66;96325.19;10286454;28;20029;-51
2023/08/06 05:06:02;;;;;;;4.15;2.50;;;;;;;18.71;98.03;96324.97;10286598;28;20026;-52
2023/08/06 05:11:01;;;;;;;6.80;2.67;;;;;;;18.55;98.10;96319.69;10285794;28;20408;-52
2023/08/06 05:16:00;;;;;;;4.55;2.55;;;;;;;18.94;98.54;96363.91;10286636;28;20061;-49
2023/08/06 05:20:59;;;;;;;5.20;2.58;;;;;;;19.16;97.30;96367.97;10285531;28;20050;-50
2023/08/06 05:25:58;;;;;;;8.10;2.85;;;;;;;18.89;96.01;96384.38;10284987;28;20046;-53
2023/08/06 05:30:57;;;;;;;5.18;2.50;;;;;;;18.66;97.30;96354.09;10285681;28;20034;-50
2023/08/06 05:35:56;;;;;;;7.18;3.13;;;;;;;18.64;96.72;96352.47;10291299;28;20033;-51
2023/08/06 05:40:56;;;;;;;4.35;2.47;;;;;;;18.54;97.95;96345.09;10326416;28;20554;-51
2023/08/06 05:45:56;;;;;;;4.55;1.98;;;;;;;18.83;96.25;96340.06;10326234;28;20103;-51
2023/08/06 05:50:55;;;;;;;4.30;2.35;;;;;;;18.38;95.83;96270.72;10331581;28;20529;-49
2023/08/06 05:55:54;;;;;;;4.70;2.28;;;;;;;18.95;95.72;96357.75;10320236;28;20753;-51
2023/08/06 06:00:53;;;;;;;4.70;2.88;;;;;;;19.13;95.14;96389.16;10292855;28;20626;-50
2023/08/06 06:05:52;;;;;;;3.05;2.20;;;;;;;19.27;94.22;96393.66;10293652;28;20069;-50
2023/08/06 06:10:50;;;;;;;3.85;2.28;;;;;;;19.52;94.39;96400.97;10292041;28;20419;-51
2023/08/06 06:15:49;;;;;;;4.40;2.42;;;;;;;19.93;94.74;96395.03;10289690;28;20122;-48
2023/08/06 06:20:48;;;;;;;4.07;2.67;;;;;;;20.22;93.34;96383.59;10290740;28;20026;-48
2023/08/06 06:25:51;;;;;;;4.25;2.38;;;;;;;20.67;92.04;96402.78;10290009;28;20101;-52
2023/08/06 06:30:51;;;;;;;3.70;2.20;;;;;;;20.82;89.06;96371.09;10287550;28;20077;-50
2023/08/06 06:35:50;;;;;;;4.95;2.55;;;;;;;21.34;86.93;96416.09;10291638;28;20060;-50
2023/08/06 06:40:56;;;;;;;3.05;2.20;;;;;;;21.32;85.32;96428.53;10287228;28;20040;-49
2023/08/06 07:21:52;;;;;;;4.45;2.42;;;;;;;22.16;79.61;96431.78;10496326;27;20481;-54
2023/08/06 07:26:52;;;;;;;3.67;2.80;;;;;;;22.56;79.99;96429.00;10503975;27;20126;-54
2023/08/06 07:31:51;;;;;;;4.88;2.83;;;;;;;22.98;78.87;96422.47;10499534;27;20082;-55
2023/08/06 07:36:50;;;;;;;3.85;2.90;;;;;;;23.46;76.84;96418.97;10486979;28;20047;-55
2023/08/06 07:41:49;;;;;;;3.95;2.50;;;;;;;23.76;72.61;96425.63;10524767;27;20051;-55
2023/08/06 07:46:48;;;;;;;4.97;2.53;;;;;;;23.85;71.53;96420.47;10524247;27;20027;-55
2023/08/06 07:51:47;;;;;;;3.95;2.75;;;;;;;23.91;71.97;96416.53;10522311;28;20126;-55
2023/08/06 07:56:46;;;;;;;5.57;3.00;;;;;;;23.81;72.42;96416.38;10524024;27;20382;-55
2023/08/06 08:01:45;;;;;;;3.95;2.70;;;;;;;23.55;70.26;96407.75;10525207;28;20846;-55
2023/08/06 08:06:44;;;;;;;4.00;3.10;;;;;;;23.54;70.10;96411.38;10525790;28;20047;-55
2023/08/06 08:11:43;;;;;;;5.72;2.97;;;;;;;23.72;71.73;96405.63;10513293;27;20048;-55
2023/08/06 08:16:42;;;;;;;4.38;3.25;;;;;;;23.94;71.56;96403.03;10484636;28;20028;-55
2023/08/06 08:21:41;;;;;;;5.63;2.92;;;;;;;23.96;70.07;96406.44;10462301;28;20063;-55
2023/08/06 08:26:39;;;;;;;4.55;3.30;;;;;;;24.06;68.69;96407.41;10456094;28;20124;-55
2023/08/06 08:31:39;;;;;;;5.80;3.10;;;;;;;24.09;64.97;96398.38;10455750;28;20135;-54
2023/08/06 08:36:38;;;;;;;8.43;4.07;;;;;;;24.13;64.90;96401.63;10454728;28;20051;-54
2023/08/06 08:41:38;;;;;;;4.43;3.10;;;;;;;24.07;62.96;96397.63;10455801;28;20073;-55
2023/08/06 08:46:40;;;;;;;5.00;3.30;;;;;;;24.17;61.94;96393.31;10495448;28;20071;-55
2023/08/06 08:51:39;;;;;;;4.57;3.30;;;;;;;24.08;61.17;96387.91;10495696;28;20349;-55
2023/08/06 08:56:38;;;;;;;5.32;3.70;;;;;;;24.30;62.62;96382.63;10496805;28;20109;-55
2023/08/06 09:01:40;;;;;;;6.60;3.95;;;;;;;23.98;63.74;96375.34;10454588;28;20035;-55
2023/08/06 09:06:41;;;;;;;7.75;4.18;;;;;;;23.75;64.22;96378.94;10454085;28;20063;-55
2023/08/06 09:11:43;;;;;;;5.57;2.80;;;;;;;23.80;65.50;96371.47;10459796;28;20051;-55
2023/08/06 09:16:43;;;;;;;7.60;3.33;;;;;;;23.58;65.04;96372.25;10495263;28;20067;-54
2023/08/06 09:21:43;;;;;;;4.00;2.75;;;;;;;23.67;67.46;96360.13;10494937;28;20339;-55
2023/08/06 09:26:44;;;;;;;4.72;3.22;;;;;;;23.78;67.40;96360.97;10494974;28;20082;-54
2023/08/06 09:31:53;;;;;;;3.90;3.03;;;;;;;23.77;66.96;96363.72;10495281;28;20544;-54
2023/08/06 09:36:53;;;;;;;3.40;2.95;;;;;;;23.38;66.56;96365.78;10480283;27;20509;-54
2023/08/06 09:41:56;;;;;;;4.22;2.60;;;;;;;23.72;66.04;96371.19;10465632;28;20127;-55
2023/08/06 09:46:57;;;;;;;3.08;2.78;;;;;;;23.83;62.23;96376.53;10454862;28;20063;-54
2023/08/06 09:51:58;;;;;;;5.20;3.00;;;;;;;24.13;64.25;96391.03;10456133;27;20076;-55
2023/08/06 09:56:57;;;;;;;5.38;3.10;;;;;;;24.22;63.29;96393.00;10371884;28;20079;-54
2023/08/06 10:01:56;;;;;;;4.97;3.10;;;;;;;24.06;64.06;96410.03;10345546;28;20060;-55
2023/08/06 10:06:56;;;;;;;3.85;3.20;;;;;;;24.21;64.07;96399.25;10369231;28;20533;-55
2023/08/06 10:11:57;;;;;;;3.10;2.72;;;;;;;24.53;63.29;96407.34;10345262;28;20295;-55
2023/08/06 10:16:59;;;;;;;4.22;3.15;;;;;;;24.59;62.05;96398.03;10366784;28;20079;-55
2023/08/06 10:22:15;;;;;;;3.53;3.00;;;;;;;24.97;59.62;96402.16;10370550;28;20071;-54
2023/08/06 10:27:20;;;;;;;3.58;2.83;;;;;;;25.56;57.30;96404.38;10367896;28;20219;-54
2023/08/06 10:32:19;;;;;;;4.18;3.05;;;;;;;25.49;55.11;96408.50;10371680;28;20071;-54
2023/08/06 10:37:19;;;;;;;5.68;3.40;;;;;;;25.60;56.45;96416.47;10357636;28;20140;-55
2023/08/06 10:42:30;;;;;;;2.97;2.60;;;;;;;25.07;57.99;96432.28;10355954;28;20532;-55
2023/08/06 10:47:29;;;;;;;3.95;2.80;;;;;;;24.71;58.79;96444.84;10367067;28;20132;-54
2023/08/06 10:52:28;;;;;;;3.53;3.10;;;;;;;24.55;60.26;96444.38;10363221;28;20048;-54
2023/08/06 10:57:26;;;;;;;3.05;2.78;;;;;;;24.60;59.74;96445.69;10369817;28;20052;-55
2023/08/06 11:02:25;;;;;;;3.53;2.72;;;;;;;24.90;57.62;96441.59;10370037;28;20091;-54
2023/08/06 11:07:28;;;;;;;3.78;3.25;;;;;;;25.05;56.10;96448.31;10366256;28;20036;-54
2023/08/06 11:12:28;;;;;;;3.08;2.78;;;;;;;25.45;55.20;96444.25;10365295;28;20091;-55
2023/08/06 11:17:29;;;;;;;3.47;2.78;;;;;;;25.68;53.71;96443.22;10366882;28;20068;-55
2023/08/06 11:22:28;;;;;;;2.95;2.67;;;;;;;25.88;53.01;96446.03;10365210;28;20072;-55
2023/08/06 11:27:28;;;;;;;4.85;2.72;;;;;;;25.61;53.72;96450.00;10363444;28;20133;-55
2023/08/06 11:32:27;;;;;;;2.97;2.67;;;;;;;25.13;53.84;96431.78;10366595;28;20069;-55
2023/08/06 11:37:27;;;;;;;3.70;3.10;;;;;;;25.05;55.53;96452.78;10367373;28;20129;-55
2023/08/06 11:42:26;;;;;;;4.57;3.47;;;;;;;24.58;60.34;96467.97;10365964;28;20832;-54
2023/08/06 11:47:24;;;;;;;4.32;2.88;;;;;;;24.17;61.60;96466.69;10367095;28;20523;-54
2023/08/06 11:52:25;;;;;;;4.72;3.22;;;;;;;24.51;58.84;96462.31;10366726;28;20500;-54
2023/08/06 11:57:24;;;;;;;3.35;3.05;;;;;;;24.84;57.74;96466.75;10372348;28;20060;-54
2023/08/06 12:02:23;;;;;;;3.30;3.00;;;;;;;25.10;56.94;96463.88;10374716;28;20853;-54
2023/08/06 12:07:27;;;;;;;3.22;2.55;;;;;;;25.32;56.66;96447.06;10374826;28;20095;-55
2023/08/06 12:12:26;;;;;;;3.08;2.75;;;;;;;25.66;54.54;96447.81;10359104;28;20172;-55
2023/08/06 12:17:25;;;;;;;3.95;3.08;;;;;;;25.91;53.92;96453.75;10371829;28;20076;-55
2023/08/06 12:22:24;;;;;;;3.30;3.00;;;;;;;25.51;50.58;96433.13;10373599;28;20071;-55
2023/08/06 12:27:23;;;;;;;2.85;2.55;;;;;;;26.06;49.58;96449.78;10370187;28;20455;-55
2023/08/06 12:32:22;;;;;;;4.00;2.75;;;;;;;27.07;49.06;96452.72;10366085;28;20529;-55
2023/08/06 12:37:21;;;;;;;3.90;2.90;;;;;;;27.56;47.26;96440.34;10369115;28;20147;-55
2023/08/06 12:42:20;;;;;;;3.85;3.25;;;;;;;27.36;49.63;96429.66;10369892;28;20131;-55
2023/08/06 12:47:19;;;;;;;3.30;3.00;;;;;;;26.73;51.81;96439.69;10370195;28;20045;-55
2023/08/06 12:52:19;;;;;;;4.18;3.30;;;;;;;26.87;51.56;96434.03;10369465;28;20131;-55
2023/08/06 12:57:18;;;;;;;4.15;3.15;;;;;;;26.82;51.79;96417.59;10371223;28;20491;-55
2023/08/06 13:02:17;;;;;;;5.47;3.63;;;;;;;26.14;52.23;96431.38;10371641;28;20486;-55
2023/08/06 13:07:16;;;;;;;3.10;2.80;;;;;;;26.28;51.96;96442.69;10372508;28;20127;-55
2023/08/06 13:12:15;;;;;;;4.28;3.83;;;;;;;26.48;52.14;96439.16;10369838;28;20023;-54
2023/08/06 13:17:14;;;;;;;4.68;2.88;;;;;;;27.34;50.50;96433.44;10368525;28;20128;-55
2023/08/06 13:22:13;;;;;;;3.22;2.78;;;;;;;27.08;46.94;96436.59;10372943;28;20047;-55
2023/08/06 13:27:12;;;;;;;4.28;3.13;;;;;;;26.78;48.76;96435.63;10369800;28;20029;-54
2023/08/06 13:32:11;;;;;;;4.57;3.25;;;;;;;26.61;52.11;96432.78;10370197;28;20032;-54
2023/08/06 13:37:10;;;;;;;3.28;2.95;;;;;;;26.06;53.01;96449.78;10373472;28;20551;-54
2023/08/06 13:42:09;;;;;;;3.80;3.20;;;;;;;25.63;54.06;96437.44;10371174;28;20064;-54
2023/08/06 13:47:08;;;;;;;4.07;3.35;;;;;;;25.90;53.92;96452.03;10370495;28;20116;-54
2023/08/06 13:52:07;;;;;;;3.85;3.15;;;;;;;26.13;51.81;96455.44;10369634;28;20064;-54
2023/08/06 13:57:06;;;;;;;4.20;3.30;;;;;;;26.45;51.38;96457.19;10370345;28;20031;-54
2023/08/06 14:02:06;;;;;;;3.72;3.00;;;;;;;26.76;49.53;96428.75;10369976;28;20112;-54
2023/08/06 14:07:05;;;;;;;4.63;3.22;;;;;;;27.39;48.79;96437.34;10369484;28;20050;-54
2023/08/06 14:12:05;;;;;;;3.35;2.83;;;;;;;27.25;46.82;96428.94;10370418;28;20124;-55
2023/08/06 14:17:04;;;;;;;5.43;3.30;;;;;;;27.16;47.40;96430.59;10366503;28;20059;-54
2023/08/06 14:22:03;;;;;;;3.25;2.95;;;;;;;27.37;46.95;96425.16;10364752;28;20072;-54
2023/08/06 14:27:03;;;;;;;3.35;3.00;;;;;;;27.03;47.72;96422.03;10364687;28;20068;-55
2023/08/06 14:32:03;;;;;;;6.22;3.70;;;;;;;27.32;47.75;96411.41;10364896;28;20463;-54
2023/08/06 14:37:02;;;;;;;3.65;3.08;;;;;;;27.53;47.47;96414.81;10366591;28;20092;-54
2023/08/06 14:42:02;;;;;;;3.22;2.90;;;;;;;27.92;46.28;96424.66;10366677;28;20059;-54
2023/08/06 14:47:01;;;;;;;4.03;3.22;;;;;;;27.77;46.46;96417.06;10367847;28;20064;-54
2023/08/06 14:52:01;;;;;;;3.38;3.08;;;;;;;27.25;46.95;96421.78;10367434;28;20021;-54
2023/08/06 14:57:00;;;;;;;5.38;3.10;;;;;;;26.98;47.79;96414.44;10367859;28;20454;-54
2023/08/06 15:01:59;;;;;;;2.90;2.70;;;;;;;26.98;47.46;96407.28;10367037;28;20107;-54
2023/08/06 15:06:58;;;;;;;4.25;3.05;;;;;;;27.03;48.21;96406.06;10366540;28;20045;-54
2023/08/06 15:11:57;;;;;;;4.22;3.40;;;;;;;27.28;47.83;96415.31;10367429;28;20129;-54
2023/08/06 15:16:57;;;;;;;4.82;3.10;;;;;;;27.44;46.72;96383.66;10366818;28;20120;-54
2023/08/06 15:21:56;;;;;;;3.95;3.55;;;;;;;27.27;46.08;96395.00;10366347;28;20071;-54
2023/08/06 15:26:55;;;;;;;4.15;3.40;;;;;;;26.79;46.39;96349.50;10366823;28;20060;-54
2023/08/06 15:31:54;;;;;;;4.40;3.63;;;;;;;27.06;46.61;96389.78;10372374;28;20127;-54
2023/08/06 15:36:54;;;;;;;3.90;3.50;;;;;;;27.21;47.13;96399.06;10374637;28;20060;-54
2023/08/06 15:41:53;;;;;;;3.67;3.25;;;;;;;27.17;46.62;96397.66;10374612;28;20125;-54
2023/08/06 15:46:52;;;;;;;3.40;3.10;;;;;;;27.16;47.20;96403.97;10374560;28;20071;-54
2023/08/06 15:51:52;;;;;;;4.32;3.33;;;;;;;26.97;47.04;96404.75;10373981;28;20021;-54
2023/08/06 15:56:51;;;;;;;5.15;3.33;;;;;;;26.81;47.56;96413.22;10375356;28;20465;-54
2023/08/06 16:01:51;;;;;;;6.82;3.90;;;;;;;26.88;48.35;96414.41;10373386;28;20112;-54
2023/08/06 16:06:50;;;;;;;3.83;3.38;;;;;;;26.64;47.85;96436.00;10372481;28;20106;-54
2023/08/06 16:11:50;;;;;;;6.88;3.42;;;;;;;26.29;48.67;96449.69;10373275;28;20045;-54
2023/08/06 16:16:49;;;;;;;4.13;3.22;;;;;;;25.97;49.51;96444.41;10373811;28;20083;-54
2023/08/06 16:21:48;;;;;;;3.67;3.28;;;;;;;25.87;49.83;96466.44;10372812;28;20136;-54
2023/08/06 16:26:47;;;;;;;4.95;3.63;;;;;;;25.84;50.47;96461.38;10373114;28;20107;-54
2023/08/06 16:31:49;;;;;;;6.38;4.00;;;;;;;25.84;51.00;96460.56;10372207;28;20031;-54
2023/08/06 16:36:47;;;;;;;3.85;3.10;;;;;;;25.74;51.92;96453.34;10372548;28;20080;-54
2023/08/06 16:41:47;;;;;;;6.00;3.47;;;;;;;25.39;51.17;96386.34;10372319;28;20061;-54
2023/08/06 16:46:46;;;;;;;5.95;3.35;;;;;;;25.70;52.82;96467.00;10371794;28;20064;-54
2023/08/06 16:51:45;;;;;;;5.78;3.65;;;;;;;25.69;53.07;96474.16;10371665;28;20127;-54
2023/08/06 16:56:43;;;;;;;4.63;3.40;;;;;;;25.74;53.43;96471.94;10367872;28;20135;-54
2023/08/06 17:01:42;;;;;;;5.95;3.60;;;;;;;25.79;52.99;96478.69;10339979;28;20127;-54
2023/08/06 17:06:41;;;;;;;4.43;2.95;;;;;;;25.81;52.73;96482.03;10368235;28;20127;-54
2023/08/06 17:11:40;;;;;;;4.75;3.65;;;;;;;25.79;52.40;96492.81;10366331;28;20025;-54
2023/08/06 17:16:39;;;;;;;5.70;3.90;;;;;;;25.76;53.17;96497.53;10367343;28;20140;-54
2023/08/06 17:21:39;;;;;;;3.97;3.58;;;;;;;25.59;53.38;96493.63;10367155;28;20041;-54
2023/08/06 17:26:38;;;;;;;9.25;3.40;;;;;;;25.48;53.29;96476.72;10366470;28;20496;-54
2023/08/06 17:31:37;;;;;;;5.10;3.80;;;;;;;25.33;54.13;96496.53;10365913;28;20496;-54
2023/08/06 17:36:35;;;;;;;7.22;3.53;;;;;;;24.92;55.75;96481.25;10367153;28;20578;-54
2023/08/06 17:41:34;;;;;;;4.35;3.58;;;;;;;24.79;57.43;96526.47;10364153;28;20028;-54
2023/08/06 17:46:33;;;;;;;9.50;5.05;;;;;;;24.63;59.16;96521.50;10365951;28;20035;-54
2023/08/06 17:51:32;;;;;;;9.27;5.22;;;;;;;24.52;61.07;96540.06;10364305;28;20108;-53
2023/08/06 17:56:31;;;;;;;8.45;5.03;;;;;;;24.44;62.17;96564.50;10366940;28;20116;-54
2023/08/06 18:01:30;;;;;;;7.43;4.80;;;;;;;24.42;63.14;96563.78;10365566;28;20116;-54
2023/08/06 18:06:29;;;;;;;8.68;5.50;;;;;;;24.29;63.91;96574.50;10363570;28;20116;-54
2023/08/06 18:11:28;;;;;;;8.15;4.40;;;;;;;24.00;66.47;96598.66;10365580;28;20505;-54
2023/08/06 18:16:28;;;;;;;4.97;4.35;;;;;;;23.27;69.50;96588.91;10363929;28;20064;-54
2023/08/06 18:21:27;;;;;;;7.28;5.10;;;;;;;23.19;71.23;96628.31;10362743;28;20132;-54
2023/08/06 18:26:26;;;;;;;7.25;4.45;;;;;;;22.82;72.42;96649.38;10365100;28;20104;-54
2023/08/06 18:31:25;;;;;;;5.68;4.20;;;;;;;22.61;73.18;96646.34;10363050;28;20069;-54
2023/08/06 18:36:24;;;;;;;5.70;4.68;;;;;;;22.37;72.43;96603.91;10363519;28;20025;-54
2023/08/06 18:41:24;;;;;;;8.70;4.78;;;;;;;22.65;71.93;96655.78;10362599;28;20506;-54
2023/08/06 18:46:23;;;;;;;7.63;5.40;;;;;;;22.53;69.59;96652.16;10338040;28;20060;-54
2023/08/06 18:51:22;;;;;;;10.77;6.50;;;;;;;22.46;68.98;96650.00;10361809;28;20029;-54
2023/08/06 18:56:21;;;;;;;13.13;6.72;;;;;;;22.44;68.10;96642.19;10362424;28;20032;-54
2023/08/06 19:01:20;;;;;;;11.57;6.93;;;;;;;22.35;68.32;96638.34;10363325;28;20104;-54
2023/08/06 19:06:19;;;;;;;8.05;6.07;;;;;;;22.25;68.79;96654.91;10361508;28;20026;-54
2023/08/06 19:11:18;;;;;;;12.65;6.07;;;;;;;22.19;69.25;96669.38;10361477;28;20076;-54
2023/08/06 19:16:17;;;;;;;7.78;6.22;;;;;;;22.16;70.50;96675.72;10363863;28;20068;-54
2023/08/06 19:21:16;;;;;;;8.40;5.72;;;;;;;22.09;70.29;96674.41;10361239;28;20045;-54
2023/08/06 19:26:15;;;;;;;7.63;5.47;;;;;;;22.04;72.13;96668.59;10363476;28;20025;-54
2023/08/06 19:31:14;;;;;;;9.45;5.70;;;;;;;21.97;73.81;96683.94;10362228;28;20053;-54
2023/08/06 19:36:15;;;;;;;8.95;5.38;;;;;;;21.95;74.02;96692.91;10360779;28;20072;-54
2023/08/06 19:41:14;;;;;;;8.15;5.40;;;;;;;21.89;74.59;96709.97;10363411;28;20060;-54
2023/08/06 19:46:13;;;;;;;8.20;6.15;;;;;;;21.83;73.38;96723.59;10361878;28;20112;-54
2023/08/06 19:51:14;;;;;;;8.07;5.40;;;;;;;21.70;71.26;96730.56;10362298;28;20036;-54
2023/08/06 19:56:14;;;;;;;8.77;6.30;;;;;;;21.44;75.68;96748.88;10362298;28;20064;-54
2023/08/06 20:01:13;;;;;;;8.77;6.07;;;;;;;21.49;75.01;96754.72;10361354;28;20503;-54
2023/08/06 20:06:12;;;;;;;8.45;5.47;;;;;;;21.56;76.13;96771.03;10363099;28;20043;-54
2023/08/06 20:11:11;;;;;;;8.70;5.90;;;;;;;21.09;79.04;96778.19;10361324;28;20120;-54
2023/08/06 20:16:12;;;;;;;8.35;5.45;;;;;;;20.89;80.36;96844.41;10364407;28;20055;-54
2023/08/06 20:21:10;;;;;;;6.43;4.88;;;;;;;20.54;77.72;96826.19;10369920;28;20060;-54
2023/08/06 20:26:10;;;;;;;7.57;5.30;;;;;;;20.32;75.31;96783.47;10365580;28;20028;-54
2023/08/06 20:31:09;;;;;;;7.07;5.15;;;;;;;20.67;72.64;96845.63;10369144;28;20052;-54
2023/08/06 20:36:07;;;;;;;7.32;6.03;;;;;;;20.73;72.79;96862.91;10366518;28;20025;-54
2023/08/06 20:41:06;;;;;;;7.63;5.22;;;;;;;20.87;72.08;96877.97;10368936;28;20436;-54
2023/08/06 20:46:07;;;;;;;8.15;5.75;;;;;;;20.93;71.55;96872.31;10366942;28;20112;-54
2023/08/06 20:51:06;;;;;;;8.35;5.28;;;;;;;20.84;70.55;96863.13;10368465;28;20079;-54
2023/08/06 20:56:05;;;;;;;7.55;5.30;;;;;;;21.02;70.79;96882.34;10367529;28;20032;-54
2023/08/06 21:01:05;;;;;;;8.65;5.43;;;;;;;21.09;71.12;96883.69;10366295;28;20051;-54
2023/08/06 21:06:05;;;;;;;7.50;5.72;;;;;;;21.13;71.65;96887.88;10368396;28;20095;-54
2023/08/06 21:11:04;;;;;;;7.90;5.72;;;;;;;21.17;72.58;96885.88;10366018;28;20068;-54
2023/08/06 21:16:04;;;;;;;7.32;5.30;;;;;;;21.09;71.76;96877.56;10368023;28;20159;-54
2023/08/06 21:21:05;;;;;;;1.73;1.60;;;;;;;21.07;65.65;96867.09;10366289;28;20083;-54
2023/08/06 21:26:05;;;;;;;2.22;1.23;;;;;;;20.99;61.71;96864.06;10365611;28;20060;-54
2023/08/06 21:31:08;;;;;;;0.77;0.77;;;;;;;20.98;58.13;96867.63;10366919;28;20156;-54
2023/08/06 21:36:09;;;;;;;1.67;1.02;;;;;;;21.03;56.56;96872.66;10363544;28;20084;-54
2023/08/06 21:41:11;;;;;;;1.48;1.05;;;;;;;21.00;55.89;96873.66;10364467;28;20409;-54
2023/08/06 21:46:12;;;;;;;1.00;0.98;;;;;;;21.01;55.11;96864.84;10358506;28;20140;-54
2023/08/06 22:16:53;;;;;;;1.15;1.00;;;;;;;20.10;55.80;96890.03;10539715;27;20453;-52
2023/08/06 22:21:52;;;;;;;1.88;1.70;;;;;;;20.11;55.44;96886.44;10537993;27;20055;-50
2023/08/06 22:26:50;;;;;;;2.15;1.10;;;;;;;20.18;54.77;96877.28;10536881;27;20085;-52
2023/08/06 22:31:49;;;;;;;1.33;1.23;;;;;;;20.30;54.22;96881.03;10535840;27;20059;-51
2023/08/06 22:36:48;;;;;;;2.10;1.20;;;;;;;20.32;54.00;96897.63;10535615;27;20066;-50
2023/08/06 22:41:47;;;;;;;1.88;1.48;;;;;;;20.33;53.59;96914.28;10532920;27;20035;-52
2023/08/06 22:46:46;;;;;;;2.72;1.50;;;;;;;20.27;53.20;96926.84;10533963;27;20126;-50
2023/08/06 22:51:45;;;;;;;2.15;1.50;;;;;;;20.17;53.34;96941.44;10539482;27;20069;-51
2023/08/06 22:56:44;;;;;;;2.72;1.40;;;;;;;20.06;54.02;96944.63;10537411;27;20104;-52
2023/08/06 23:01:43;;;;;;;2.92;1.55;;;;;;;19.96;54.95;96925.00;10536845;27;20063;-51
2023/08/06 23:06:42;;;;;;;1.30;1.20;;;;;;;19.86;55.38;96940.41;10535133;27;20062;-51
2023/08/06 23:11:41;;;;;;;1.83;1.50;;;;;;;19.64;55.39;96942.44;10534475;27;20107;-51
2023/08/06 23:16:40;;;;;;;1.67;1.50;;;;;;;19.71;56.07;96964.88;10512001;27;20057;-49
2023/08/06 23:21:39;;;;;;;1.80;1.70;;;;;;;19.49;56.63;96957.19;10504264;27;20050;-51
2023/08/06 23:26:38;;;;;;;1.98;1.80;;;;;;;19.53;56.22;96952.59;10503300;28;20059;-51
2023/08/06 23:31:37;;;;;;;2.17;1.98;;;;;;;19.37;56.96;96956.00;10508523;27;20058;-51
2023/08/06 23:36:36;;;;;;;2.47;2.25;;;;;;;19.40;56.35;96971.63;10508043;27;20051;-50
2023/08/06 23:41:35;;;;;;;3.47;2.72;;;;;;;19.22;56.79;96973.38;10500543;27;20035;-51
2023/08/06 23:46:35;;;;;;;2.83;2.60;;;;;;;19.11;57.21;96969.56;10505999;27;20049;-52
2023/08/06 23:51:34;;;;;;;2.72;2.53;;;;;;;19.09;58.46;96974.03;10504217;27;20555;-50
2023/08/06 23:56:33;;;;;;;3.47;3.10;;;;;;;18.99;59.04;96966.59;10503729;27;20504;-51
